sensor_id;sensor_type;location;lat;lon;timestamp;P1;P2;P0
73749;PMS7003;62058;48.406;-4.514;2023-05-07T00:00:45;3.50;2.00;2.00
73749;PMS7003;62058;48.406;-4.514;2023-05-07T00:03:10;5.00;2.25;2.00
73749;PMS7003;62058;48.406;-4.514;2023-05-07T00:05:36;6.75;4.25;4.00
73749;PMS7003;62058;48.406;-4.514;2023-05-07T00:08:02;3.50;3.50;3.50
73749;PMS7003;62058;48.406;-4.514;2023-05-07T00:10:28;5.75;2.50;2.50
73749;PMS7003;62058;48.406;-4.514;2023-05-07T00:12:53;6.25;3.50;3.50
73749;PMS7003;62058;48.406;-4.514;2023-05-07T00:15:19;2.00;2.00;2.00
73749;PMS7003;62058;48.406;-4.514;2023-05-07T00:17:44;7.00;3.50;3.50
73749;PMS7003;62058;48.406;-4.514;2023-05-07T00:20:10;12.75;3.75;3.50
73749;PMS7003;62058;48.406;-4.514;2023-05-07T00:22:35;2.25;2.25;2.25
73749;PMS7003;62058;48.406;-4.514;2023-05-07T00:25:01;6.25;1.25;1.25
73749;PMS7003;62058;48.406;-4.514;2023-05-07T00:27:26;1.00;1.00;1.00
73749;PMS7003;62058;48.406;-4.514;2023-05-07T00:29:52;4.50;3.00;2.75
73749;PMS7003;62058;48.406;-4.514;2023-05-07T00:32:17;5.75;3.75;3.75
73749;PMS7003;62058;48.406;-4.514;2023-05-07T00:34:43;3.00;2.00;1.75
73749;PMS7003;62058;48.406;-4.514;2023-05-07T00:37:08;8.50;3.00;3.00
73749;PMS7003;62058;48.406;-4.514;2023-05-07T00:39:34;4.00;3.00;3.00
73749;PMS7003;62058;48.406;-4.514;2023-05-07T00:42:00;7.00;2.75;2.75
73749;PMS7003;62058;48.406;-4.514;2023-05-07T00:44:26;4.00;2.00;2.00
73749;PMS7003;62058;48.406;-4.514;2023-05-07T00:46:52;5.75;3.25;3.25
73749;PMS7003;62058;48.406;-4.514;2023-05-07T00:49:18;7.00;1.75;1.75
73749;PMS7003;62058;48.406;-4.514;2023-05-07T00:51:45;8.00;1.00;1.00
73749;PMS7003;62058;48.406;-4.514;2023-05-07T00:54:10;3.25;3.00;3.00
73749;PMS7003;62058;48.406;-4.514;2023-05-07T00:56:36;4.75;2.25;2.25
73749;PMS7003;62058;48.406;-4.514;2023-05-07T00:59:02;4.50;2.75;2.25
73749;PMS7003;62058;48.406;-4.514;2023-05-07T01:01:28;4.00;1.75;1.75
73749;PMS7003;62058;48.406;-4.514;2023-05-07T01:03:54;5.25;2.00;2.00
73749;PMS7003;62058;48.406;-4.514;2023-05-07T01:06:20;3.50;3.00;3.00
73749;PMS7003;62058;48.406;-4.514;2023-05-07T01:08:47;8.75;1.25;1.00
73749;PMS7003;62058;48.406;-4.514;2023-05-07T01:11:15;2.50;2.50;2.00
73749;PMS7003;62058;48.406;-4.514;2023-05-07T01:13:42;8.00;1.50;1.50
73749;PMS7003;62058;48.406;-4.514;2023-05-07T01:16:08;3.00;3.00;2.75
73749;PMS7003;62058;48.406;-4.514;2023-05-07T01:18:34;9.00;1.00;1.00
73749;PMS7003;62058;48.406;-4.514;2023-05-07T01:21:00;6.00;1.00;1.00
73749;PMS7003;62058;48.406;-4.514;2023-05-07T01:23:28;4.00;3.00;3.00
73749;PMS7003;62058;48.406;-4.514;2023-05-07T01:25:55;1.00;1.00;1.00
73749;PMS7003;62058;48.406;-4.514;2023-05-07T01:28:20;4.00;4.00;4.00
73749;PMS7003;62058;48.406;-4.514;2023-05-07T01:30:47;10.50;3.00;3.00
73749;PMS7003;62058;48.406;-4.514;2023-05-07T01:33:18;4.00;3.75;3.00
73749;PMS7003;62058;48.406;-4.514;2023-05-07T01:35:50;8.50;3.00;3.00
73749;PMS7003;62058;48.406;-4.514;2023-05-07T01:38:18;4.50;4.00;4.00
73749;PMS7003;62058;48.406;-4.514;2023-05-07T01:40:44;4.50;1.25;1.25
73749;PMS7003;62058;48.406;-4.514;2023-05-07T01:43:10;3.00;2.00;1.75
73749;PMS7003;62058;48.406;-4.514;2023-05-07T01:45:35;6.00;3.25;3.00
73749;PMS7003;62058;48.406;-4.514;2023-05-07T01:48:02;7.00;3.00;3.00
73749;PMS7003;62058;48.406;-4.514;2023-05-07T01:50:27;6.50;5.00;4.25
73749;PMS7003;62058;48.406;-4.514;2023-05-07T01:52:54;7.00;2.75;1.25
73749;PMS7003;62058;48.406;-4.514;2023-05-07T01:55:20;5.25;2.50;2.25
73749;PMS7003;62058;48.406;-4.514;2023-05-07T01:57:45;7.50;1.00;1.00
73749;PMS7003;62058;48.406;-4.514;2023-05-07T02:00:11;1.25;1.25;1.00
73749;PMS7003;62058;48.406;-4.514;2023-05-07T02:02:36;1.75;1.00;1.00
73749;PMS7003;62058;48.406;-4.514;2023-05-07T02:05:03;1.00;1.00;1.00
73749;PMS7003;62058;48.406;-4.514;2023-05-07T02:07:29;3.00;3.00;3.00
73749;PMS7003;62058;48.406;-4.514;2023-05-07T02:09:54;5.50;3.00;2.75
73749;PMS7003;62058;48.406;-4.514;2023-05-07T02:12:20;1.75;1.00;1.00
73749;PMS7003;62058;48.406;-4.514;2023-05-07T02:14:46;8.25;0.50;0.50
73749;PMS7003;62058;48.406;-4.514;2023-05-07T02:17:11;5.75;1.75;1.50
73749;PMS7003;62058;48.406;-4.514;2023-05-07T02:19:36;1.75;1.00;1.00
73749;PMS7003;62058;48.406;-4.514;2023-05-07T02:22:02;2.75;1.25;1.25
73749;PMS7003;62058;48.406;-4.514;2023-05-07T02:24:27;3.50;1.00;1.00
73749;PMS7003;62058;48.406;-4.514;2023-05-07T02:26:52;1.00;1.00;1.00
73749;PMS7003;62058;48.406;-4.514;2023-05-07T02:29:18;3.00;0.00;0.00
73749;PMS7003;62058;48.406;-4.514;2023-05-07T02:31:44;6.50;1.00;1.00
73749;PMS7003;62058;48.406;-4.514;2023-05-07T02:34:09;3.00;0.25;0.25
73749;PMS7003;62058;48.406;-4.514;2023-05-07T02:36:34;3.75;1.00;1.00
73749;PMS7003;62058;48.406;-4.514;2023-05-07T02:39:00;1.00;1.00;1.00
73749;PMS7003;62058;48.406;-4.514;2023-05-07T02:41:25;1.00;1.00;1.00
73749;PMS7003;62058;48.406;-4.514;2023-05-07T02:43:51;3.00;1.00;1.00
73749;PMS7003;62058;48.406;-4.514;2023-05-07T02:46:16;1.00;1.00;1.00
73749;PMS7003;62058;48.406;-4.514;2023-05-07T02:48:41;1.00;1.00;1.00
73749;PMS7003;62058;48.406;-4.514;2023-05-07T02:51:07;1.50;0.75;0.75
73749;PMS7003;62058;48.406;-4.514;2023-05-07T02:53:33;1.00;1.00;1.00
73749;PMS7003;62058;48.406;-4.514;2023-05-07T02:55:59;1.75;0.25;0.25
73749;PMS7003;62058;48.406;-4.514;2023-05-07T02:58:26;3.50;1.25;1.25
73749;PMS7003;62058;48.406;-4.514;2023-05-07T03:00:51;2.50;0.75;0.75
73749;PMS7003;62058;48.406;-4.514;2023-05-07T03:03:17;4.50;3.00;3.00
73749;PMS7003;62058;48.406;-4.514;2023-05-07T03:05:42;4.00;3.00;1.50
73749;PMS7003;62058;48.406;-4.514;2023-05-07T03:08:08;4.50;3.50;3.50
73749;PMS7003;62058;48.406;-4.514;2023-05-07T03:10:35;2.75;0.00;0.00
73749;PMS7003;62058;48.406;-4.514;2023-05-07T03:13:01;7.25;1.00;1.00
73749;PMS7003;62058;48.406;-4.514;2023-05-07T03:15:26;1.00;1.00;1.00
73749;PMS7003;62058;48.406;-4.514;2023-05-07T03:17:52;1.00;0.00;0.00
73749;PMS7003;62058;48.406;-4.514;2023-05-07T03:20:17;3.00;1.00;1.00
73749;PMS7003;62058;48.406;-4.514;2023-05-07T03:22:42;4.00;0.75;0.75
73749;PMS7003;62058;48.406;-4.514;2023-05-07T03:25:08;2.50;0.75;0.75
73749;PMS7003;62058;48.406;-4.514;2023-05-07T03:27:34;0.50;0.50;0.50
73749;PMS7003;62058;48.406;-4.514;2023-05-07T03:29:59;3.00;0.00;0.00
73749;PMS7003;62058;48.406;-4.514;2023-05-07T03:32:25;4.00;1.00;1.00
73749;PMS7003;62058;48.406;-4.514;2023-05-07T03:34:50;3.00;0.50;0.50
73749;PMS7003;62058;48.406;-4.514;2023-05-07T03:37:16;1.00;1.00;1.00
73749;PMS7003;62058;48.406;-4.514;2023-05-07T03:39:41;3.00;1.00;1.00
73749;PMS7003;62058;48.406;-4.514;2023-05-07T03:42:06;0.00;0.00;0.00
73749;PMS7003;62058;48.406;-4.514;2023-05-07T03:44:32;0.75;0.00;0.00
73749;PMS7003;62058;48.406;-4.514;2023-05-07T03:46:57;0.50;0.50;0.50
73749;PMS7003;62058;48.406;-4.514;2023-05-07T03:49:23;0.00;0.00;0.00
73749;PMS7003;62058;48.406;-4.514;2023-05-07T03:51:48;3.00;0.25;0.25
73749;PMS7003;62058;48.406;-4.514;2023-05-07T03:54:13;0.00;0.00;0.00
73749;PMS7003;62058;48.406;-4.514;2023-05-07T03:56:39;0.00;0.00;0.00
73749;PMS7003;62058;48.406;-4.514;2023-05-07T03:59:05;0.00;0.00;0.00
73749;PMS7003;62058;48.406;-4.514;2023-05-07T04:01:30;0.75;0.00;0.00
73749;PMS7003;62058;48.406;-4.514;2023-05-07T04:03:55;0.25;0.25;0.00
73749;PMS7003;62058;48.406;-4.514;2023-05-07T04:06:21;0.25;0.25;0.25
73749;PMS7003;62058;48.406;-4.514;2023-05-07T04:08:46;4.25;0.75;0.75
73749;PMS7003;62058;48.406;-4.514;2023-05-07T04:11:11;0.00;0.00;0.00
73749;PMS7003;62058;48.406;-4.514;2023-05-07T04:13:37;4.50;0.00;0.00
73749;PMS7003;62058;48.406;-4.514;2023-05-07T04:18:30;0.00;0.00;0.00
73749;PMS7003;62058;48.406;-4.514;2023-05-07T04:20:55;0.75;0.00;0.00
73749;PMS7003;62058;48.406;-4.514;2023-05-07T04:23:21;0.00;0.00;0.00
73749;PMS7003;62058;48.406;-4.514;2023-05-07T04:25:46;1.00;0.25;0.25
73749;PMS7003;62058;48.406;-4.514;2023-05-07T04:28:11;1.00;0.00;0.00
73749;PMS7003;62058;48.406;-4.514;2023-05-07T04:30:37;0.50;0.50;0.50
73749;PMS7003;62058;48.406;-4.514;2023-05-07T04:33:03;0.50;0.50;0.50
73749;PMS7003;62058;48.406;-4.514;2023-05-07T04:35:28;0.00;0.00;0.00
73749;PMS7003;62058;48.406;-4.514;2023-05-07T04:37:53;0.25;0.25;0.25
73749;PMS7003;62058;48.406;-4.514;2023-05-07T04:40:19;0.00;0.00;0.00
73749;PMS7003;62058;48.406;-4.514;2023-05-07T04:42:45;0.25;0.00;0.00
73749;PMS7003;62058;48.406;-4.514;2023-05-07T04:45:10;0.75;0.75;0.75
73749;PMS7003;62058;48.406;-4.514;2023-05-07T04:47:37;0.00;0.00;0.00
73749;PMS7003;62058;48.406;-4.514;2023-05-07T04:50:02;0.75;0.00;0.00
73749;PMS7003;62058;48.406;-4.514;2023-05-07T04:52:28;0.00;0.00;0.00
73749;PMS7003;62058;48.406;-4.514;2023-05-07T04:54:53;0.00;0.00;0.00
73749;PMS7003;62058;48.406;-4.514;2023-05-07T04:57:19;1.00;0.00;0.00
73749;PMS7003;62058;48.406;-4.514;2023-05-07T04:59:44;0.00;0.00;0.00
73749;PMS7003;62058;48.406;-4.514;2023-05-07T05:02:12;2.00;1.00;1.00
73749;PMS7003;62058;48.406;-4.514;2023-05-07T05:04:37;4.00;0.00;0.00
73749;PMS7003;62058;48.406;-4.514;2023-05-07T05:07:03;0.00;0.00;0.00
73749;PMS7003;62058;48.406;-4.514;2023-05-07T05:09:29;0.00;0.00;0.00
73749;PMS7003;62058;48.406;-4.514;2023-05-07T05:11:55;3.00;0.00;0.00
73749;PMS7003;62058;48.406;-4.514;2023-05-07T05:14:20;0.00;0.00;0.00
73749;PMS7003;62058;48.406;-4.514;2023-05-07T05:16:45;0.00;0.00;0.00
73749;PMS7003;62058;48.406;-4.514;2023-05-07T05:19:11;1.00;0.00;0.00
73749;PMS7003;62058;48.406;-4.514;2023-05-07T05:21:36;0.00;0.00;0.00
73749;PMS7003;62058;48.406;-4.514;2023-05-07T05:24:02;1.50;0.00;0.00
73749;PMS7003;62058;48.406;-4.514;2023-05-07T05:26:27;0.00;0.00;0.00
73749;PMS7003;62058;48.406;-4.514;2023-05-07T05:28:52;0.75;0.00;0.00
73749;PMS7003;62058;48.406;-4.514;2023-05-07T05:31:18;2.50;1.00;1.00
73749;PMS7003;62058;48.406;-4.514;2023-05-07T05:33:43;4.75;1.00;1.00
73749;PMS7003;62058;48.406;-4.514;2023-05-07T05:36:09;3.00;3.00;3.00
73749;PMS7003;62058;48.406;-4.514;2023-05-07T05:38:35;6.75;3.00;3.00
73749;PMS7003;62058;48.406;-4.514;2023-05-07T05:41:01;3.00;3.00;3.00
73749;PMS7003;62058;48.406;-4.514;2023-05-07T05:43:26;1.00;0.00;0.00
73749;PMS7003;62058;48.406;-4.514;2023-05-07T05:45:51;4.00;1.00;1.00
73749;PMS7003;62058;48.406;-4.514;2023-05-07T05:48:17;3.00;1.00;1.00
73749;PMS7003;62058;48.406;-4.514;2023-05-07T05:50:42;1.50;1.50;1.50
73749;PMS7003;62058;48.406;-4.514;2023-05-07T05:53:07;0.50;0.50;0.50
73749;PMS7003;62058;48.406;-4.514;2023-05-07T05:55:35;2.75;1.25;1.00
73749;PMS7003;62058;48.406;-4.514;2023-05-07T05:58:01;1.50;0.00;0.00
73749;PMS7003;62058;48.406;-4.514;2023-05-07T06:00:27;1.00;1.00;1.00
73749;PMS7003;62058;48.406;-4.514;2023-05-07T06:02:52;0.75;0.75;0.75
73749;PMS7003;62058;48.406;-4.514;2023-05-07T06:05:18;3.00;0.25;0.25
73749;PMS7003;62058;48.406;-4.514;2023-05-07T06:07:43;1.75;0.00;0.00
73749;PMS7003;62058;48.406;-4.514;2023-05-07T06:10:08;0.00;0.00;0.00
73749;PMS7003;62058;48.406;-4.514;2023-05-07T06:12:34;0.75;0.00;0.00
73749;PMS7003;62058;48.406;-4.514;2023-05-07T06:15:00;0.00;0.00;0.00
73749;PMS7003;62058;48.406;-4.514;2023-05-07T06:17:25;1.00;0.00;0.00
73749;PMS7003;62058;48.406;-4.514;2023-05-07T06:19:51;0.00;0.00;0.00
73749;PMS7003;62058;48.406;-4.514;2023-05-07T06:22:17;1.50;0.00;0.00
73749;PMS7003;62058;48.406;-4.514;2023-05-07T06:24:42;3.00;1.00;1.00
73749;PMS7003;62058;48.406;-4.514;2023-05-07T06:27:08;0.00;0.00;0.00
73749;PMS7003;62058;48.406;-4.514;2023-05-07T06:29:33;1.00;0.00;0.00
73749;PMS7003;62058;48.406;-4.514;2023-05-07T06:32:11;0.00;0.00;0.00
73749;PMS7003;62058;48.406;-4.514;2023-05-07T06:34:38;0.00;0.00;0.00
73749;PMS7003;62058;48.406;-4.514;2023-05-07T06:37:04;1.50;0.00;0.00
73749;PMS7003;62058;48.406;-4.514;2023-05-07T06:39:30;0.00;0.00;0.00
73749;PMS7003;62058;48.406;-4.514;2023-05-07T06:41:56;1.75;0.00;0.00
73749;PMS7003;62058;48.406;-4.514;2023-05-07T06:44:21;0.00;0.00;0.00
73749;PMS7003;62058;48.406;-4.514;2023-05-07T06:46:47;0.00;0.00;0.00
73749;PMS7003;62058;48.406;-4.514;2023-05-07T06:49:12;0.25;0.25;0.25
73749;PMS7003;62058;48.406;-4.514;2023-05-07T06:51:38;1.00;1.00;0.75
73749;PMS7003;62058;48.406;-4.514;2023-05-07T06:54:04;0.00;0.00;0.00
73749;PMS7003;62058;48.406;-4.514;2023-05-07T06:56:30;0.00;0.00;0.00
73749;PMS7003;62058;48.406;-4.514;2023-05-07T06:58:55;1.00;0.00;0.00
73749;PMS7003;62058;48.406;-4.514;2023-05-07T07:01:21;0.00;0.00;0.00
73749;PMS7003;62058;48.406;-4.514;2023-05-07T07:03:46;0.50;0.00;0.00
73749;PMS7003;62058;48.406;-4.514;2023-05-07T07:06:12;1.50;0.00;0.00
73749;PMS7003;62058;48.406;-4.514;2023-05-07T07:08:37;2.00;0.25;0.25
73749;PMS7003;62058;48.406;-4.514;2023-05-07T07:11:04;0.25;0.25;0.25
73749;PMS7003;62058;48.406;-4.514;2023-05-07T07:13:29;1.00;0.00;0.00
73749;PMS7003;62058;48.406;-4.514;2023-05-07T07:15:55;2.00;0.00;0.00
73749;PMS7003;62058;48.406;-4.514;2023-05-07T07:18:20;0.00;0.00;0.00
73749;PMS7003;62058;48.406;-4.514;2023-05-07T07:20:46;0.00;0.00;0.00
73749;PMS7003;62058;48.406;-4.514;2023-05-07T07:23:11;4.00;0.00;0.00
73749;PMS7003;62058;48.406;-4.514;2023-05-07T07:25:36;2.50;1.00;1.00
73749;PMS7003;62058;48.406;-4.514;2023-05-07T07:28:02;1.75;1.25;1.00
73749;PMS7003;62058;48.406;-4.514;2023-05-07T07:30:27;0.00;0.00;0.00
73749;PMS7003;62058;48.406;-4.514;2023-05-07T07:32:53;0.75;0.75;0.75
73749;PMS7003;62058;48.406;-4.514;2023-05-07T07:35:18;2.75;1.25;1.25
73749;PMS7003;62058;48.406;-4.514;2023-05-07T07:37:44;1.00;1.00;1.00
73749;PMS7003;62058;48.406;-4.514;2023-05-07T07:40:09;1.00;1.00;1.00
73749;PMS7003;62058;48.406;-4.514;2023-05-07T07:42:36;0.75;0.75;0.75
73749;PMS7003;62058;48.406;-4.514;2023-05-07T07:45:01;2.50;1.25;1.25
73749;PMS7003;62058;48.406;-4.514;2023-05-07T07:47:27;1.00;0.00;0.00
73749;PMS7003;62058;48.406;-4.514;2023-05-07T07:49:53;1.50;1.00;1.00
73749;PMS7003;62058;48.406;-4.514;2023-05-07T07:52:18;3.00;2.00;2.00
73749;PMS7003;62058;48.406;-4.514;2023-05-07T07:54:44;2.00;2.00;2.00
73749;PMS7003;62058;48.406;-4.514;2023-05-07T07:57:09;2.00;1.50;1.50
73749;PMS7003;62058;48.406;-4.514;2023-05-07T07:59:35;3.00;0.75;0.75
73749;PMS7003;62058;48.406;-4.514;2023-05-07T08:02:01;3.00;3.00;3.00
73749;PMS7003;62058;48.406;-4.514;2023-05-07T08:04:26;2.00;2.00;2.00
73749;PMS7003;62058;48.406;-4.514;2023-05-07T08:06:51;3.50;2.00;2.00
73749;PMS7003;62058;48.406;-4.514;2023-05-07T08:09:19;2.00;2.00;2.00
73749;PMS7003;62058;48.406;-4.514;2023-05-07T08:11:44;3.25;1.75;1.75
73749;PMS7003;62058;48.406;-4.514;2023-05-07T08:14:10;2.00;2.00;2.00
73749;PMS7003;62058;48.406;-4.514;2023-05-07T08:16:36;6.25;2.75;2.75
73749;PMS7003;62058;48.406;-4.514;2023-05-07T08:19:01;3.00;3.00;3.00
73749;PMS7003;62058;48.406;-4.514;2023-05-07T08:21:26;2.75;2.75;2.25
73749;PMS7003;62058;48.406;-4.514;2023-05-07T08:23:52;4.00;2.00;2.00
73749;PMS7003;62058;48.406;-4.514;2023-05-07T08:26:17;2.25;1.75;1.75
73749;PMS7003;62058;48.406;-4.514;2023-05-07T08:28:42;4.50;1.25;1.25
73749;PMS7003;62058;48.406;-4.514;2023-05-07T08:31:08;2.00;1.50;1.50
73749;PMS7003;62058;48.406;-4.514;2023-05-07T08:33:33;3.00;1.25;1.25
73749;PMS7003;62058;48.406;-4.514;2023-05-07T08:35:58;2.00;1.00;1.00
73749;PMS7003;62058;48.406;-4.514;2023-05-07T08:38:24;2.00;1.75;1.50
73749;PMS7003;62058;48.406;-4.514;2023-05-07T08:40:49;2.00;1.00;1.00
73749;PMS7003;62058;48.406;-4.514;2023-05-07T08:43:15;0.75;0.75;0.75
73749;PMS7003;62058;48.406;-4.514;2023-05-07T08:45:42;4.00;0.50;0.50
73749;PMS7003;62058;48.406;-4.514;2023-05-07T08:48:16;1.75;1.00;1.00
73749;PMS7003;62058;48.406;-4.514;2023-05-07T08:50:42;3.25;1.75;0.75
73749;PMS7003;62058;48.406;-4.514;2023-05-07T08:53:07;1.00;1.00;1.00
73749;PMS7003;62058;48.406;-4.514;2023-05-07T08:55:33;3.00;2.00;2.00
73749;PMS7003;62058;48.406;-4.514;2023-05-07T08:57:59;4.25;1.00;1.00
73749;PMS7003;62058;48.406;-4.514;2023-05-07T09:00:25;4.00;1.00;1.00
73749;PMS7003;62058;48.406;-4.514;2023-05-07T09:02:50;1.25;1.00;1.00
73749;PMS7003;62058;48.406;-4.514;2023-05-07T09:05:16;0.50;0.25;0.25
73749;PMS7003;62058;48.406;-4.514;2023-05-07T09:07:42;2.00;1.00;1.00
73749;PMS7003;62058;48.406;-4.514;2023-05-07T09:10:07;3.75;0.50;0.50
73749;PMS7003;62058;48.406;-4.514;2023-05-07T09:12:33;3.50;0.75;0.75
73749;PMS7003;62058;48.406;-4.514;2023-05-07T09:15:00;1.00;1.00;1.00
73749;PMS7003;62058;48.406;-4.514;2023-05-07T09:17:26;1.75;0.50;0.50
73749;PMS7003;62058;48.406;-4.514;2023-05-07T09:19:51;1.25;0.00;0.00
73749;PMS7003;62058;48.406;-4.514;2023-05-07T09:22:18;1.00;0.00;0.00
73749;PMS7003;62058;48.406;-4.514;2023-05-07T09:24:49;1.00;1.00;1.00
73749;PMS7003;62058;48.406;-4.514;2023-05-07T09:27:16;2.50;0.00;0.00
73749;PMS7003;62058;48.406;-4.514;2023-05-07T09:29:43;0.00;0.00;0.00
73749;PMS7003;62058;48.406;-4.514;2023-05-07T09:32:09;8.00;1.00;1.00
73749;PMS7003;62058;48.406;-4.514;2023-05-07T09:34:35;1.00;0.00;0.00
73749;PMS7003;62058;48.406;-4.514;2023-05-07T09:37:04;2.00;0.00;0.00
73749;PMS7003;62058;48.406;-4.514;2023-05-07T09:42:13;0.50;0.00;0.00
73749;PMS7003;62058;48.406;-4.514;2023-05-07T09:44:42;2.00;0.00;0.00
73749;PMS7003;62058;48.406;-4.514;2023-05-07T09:47:08;0.00;0.00;0.00
73749;PMS7003;62058;48.406;-4.514;2023-05-07T09:49:38;0.00;0.00;0.00
73749;PMS7003;62058;48.406;-4.514;2023-05-07T09:52:07;0.00;0.00;0.00
73749;PMS7003;62058;48.406;-4.514;2023-05-07T09:54:36;0.00;0.00;0.00
73749;PMS7003;62058;48.406;-4.514;2023-05-07T09:57:03;1.25;0.50;0.50
73749;PMS7003;62058;48.406;-4.514;2023-05-07T09:59:31;2.75;1.00;0.75
73749;PMS7003;62058;48.406;-4.514;2023-05-07T10:01:58;0.75;0.75;0.75
73749;PMS7003;62058;48.406;-4.514;2023-05-07T10:04:27;2.00;0.50;0.50
73749;PMS7003;62058;48.406;-4.514;2023-05-07T10:06:53;1.00;1.00;1.00
73749;PMS7003;62058;48.406;-4.514;2023-05-07T10:09:20;1.75;0.25;0.25
73749;PMS7003;62058;48.406;-4.514;2023-05-07T10:11:46;0.00;0.00;0.00
73749;PMS7003;62058;48.406;-4.514;2023-05-07T10:14:14;0.00;0.00;0.00
73749;PMS7003;62058;48.406;-4.514;2023-05-07T10:16:39;2.00;0.00;0.00
73749;PMS7003;62058;48.406;-4.514;2023-05-07T10:19:06;0.00;0.00;0.00
73749;PMS7003;62058;48.406;-4.514;2023-05-07T10:21:38;1.00;1.00;1.00
73749;PMS7003;62058;48.406;-4.514;2023-05-07T10:24:10;2.50;0.00;0.00
73749;PMS7003;62058;48.406;-4.514;2023-05-07T10:26:42;0.00;0.00;0.00
73749;PMS7003;62058;48.406;-4.514;2023-05-07T10:29:15;1.00;0.00;0.00
73749;PMS7003;62058;48.406;-4.514;2023-05-07T10:34:50;3.00;0.00;0.00
73749;PMS7003;62058;48.406;-4.514;2023-05-07T10:37:19;3.75;0.00;0.00
73749;PMS7003;62058;48.406;-4.514;2023-05-07T10:39:44;1.00;0.00;0.00
73749;PMS7003;62058;48.406;-4.514;2023-05-07T10:42:10;0.50;0.50;0.50
73749;PMS7003;62058;48.406;-4.514;2023-05-07T10:44:37;2.00;0.00;0.00
73749;PMS7003;62058;48.406;-4.514;2023-05-07T10:47:03;2.50;0.00;0.00
73749;PMS7003;62058;48.406;-4.514;2023-05-07T10:49:34;0.00;0.00;0.00
73749;PMS7003;62058;48.406;-4.514;2023-05-07T10:54:42;0.00;0.00;0.00
73749;PMS7003;62058;48.406;-4.514;2023-05-07T10:59:53;0.75;0.00;0.00
73749;PMS7003;62058;48.406;-4.514;2023-05-07T11:02:19;2.00;0.25;0.25
73749;PMS7003;62058;48.406;-4.514;2023-05-07T11:04:44;2.50;0.00;0.00
73749;PMS7003;62058;48.406;-4.514;2023-05-07T11:15:08;0.00;0.00;0.00
73749;PMS7003;62058;48.406;-4.514;2023-05-07T11:17:34;0.00;0.00;0.00
73749;PMS7003;62058;48.406;-4.514;2023-05-07T11:20:18;0.00;0.00;0.00
73749;PMS7003;62058;48.406;-4.514;2023-05-07T11:22:44;3.00;0.00;0.00
73749;PMS7003;62058;48.406;-4.514;2023-05-07T11:25:09;0.00;0.00;0.00
73749;PMS7003;62058;48.406;-4.514;2023-05-07T11:27:35;0.00;0.00;0.00
73749;PMS7003;62058;48.406;-4.514;2023-05-07T11:30:01;0.50;0.00;0.00
73749;PMS7003;62058;48.406;-4.514;2023-05-07T11:32:30;0.00;0.00;0.00
73749;PMS7003;62058;48.406;-4.514;2023-05-07T11:34:57;1.00;0.00;0.00
73749;PMS7003;62058;48.406;-4.514;2023-05-07T11:37:24;1.00;0.00;0.00
73749;PMS7003;62058;48.406;-4.514;2023-05-07T11:39:51;0.75;0.00;0.00
73749;PMS7003;62058;48.406;-4.514;2023-05-07T11:42:35;1.00;0.00;0.00
73749;PMS7003;62058;48.406;-4.514;2023-05-07T11:45:06;1.75;0.50;0.50
73749;PMS7003;62058;48.406;-4.514;2023-05-07T11:47:32;1.00;1.00;1.00
73749;PMS7003;62058;48.406;-4.514;2023-05-07T11:50:06;1.00;0.75;0.75
73749;PMS7003;62058;48.406;-4.514;2023-05-07T11:52:32;1.00;1.00;1.00
73749;PMS7003;62058;48.406;-4.514;2023-05-07T11:55:00;2.00;1.00;1.00
73749;PMS7003;62058;48.406;-4.514;2023-05-07T11:57:28;1.00;1.00;1.00
73749;PMS7003;62058;48.406;-4.514;2023-05-07T11:59:54;1.00;1.00;1.00
73749;PMS7003;62058;48.406;-4.514;2023-05-07T12:02:23;1.00;1.00;1.00
73749;PMS7003;62058;48.406;-4.514;2023-05-07T12:04:50;2.75;1.00;1.00
73749;PMS7003;62058;48.406;-4.514;2023-05-07T12:07:16;1.00;1.00;1.00
73749;PMS7003;62058;48.406;-4.514;2023-05-07T12:09:43;3.75;1.50;1.50
73749;PMS7003;62058;48.406;-4.514;2023-05-07T12:12:09;3.00;1.00;1.00
73749;PMS7003;62058;48.406;-4.514;2023-05-07T12:14:38;3.75;1.25;1.00
73749;PMS7003;62058;48.406;-4.514;2023-05-07T12:17:05;3.50;1.00;1.00
73749;PMS7003;62058;48.406;-4.514;2023-05-07T12:19:31;2.75;2.00;2.00
73749;PMS7003;62058;48.406;-4.514;2023-05-07T12:21:58;1.50;0.00;0.00
73749;PMS7003;62058;48.406;-4.514;2023-05-07T12:24:24;1.00;0.75;0.75
73749;PMS7003;62058;48.406;-4.514;2023-05-07T12:26:49;2.50;1.00;1.00
73749;PMS7003;62058;48.406;-4.514;2023-05-07T12:29:15;1.50;1.25;1.25
73749;PMS7003;62058;48.406;-4.514;2023-05-07T12:31:43;2.00;1.00;1.00
73749;PMS7003;62058;48.406;-4.514;2023-05-07T12:34:12;1.25;1.00;1.00
73749;PMS7003;62058;48.406;-4.514;2023-05-07T12:36:37;1.50;1.00;1.00
73749;PMS7003;62058;48.406;-4.514;2023-05-07T12:39:06;3.00;1.00;1.00
73749;PMS7003;62058;48.406;-4.514;2023-05-07T12:41:36;1.00;1.00;1.00
73749;PMS7003;62058;48.406;-4.514;2023-05-07T12:44:18;1.50;1.50;1.50
73749;PMS7003;62058;48.406;-4.514;2023-05-07T12:46:43;2.75;1.00;1.00
73749;PMS7003;62058;48.406;-4.514;2023-05-07T12:49:08;0.00;0.00;0.00
73749;PMS7003;62058;48.406;-4.514;2023-05-07T12:51:34;0.00;0.00;0.00
73749;PMS7003;62058;48.406;-4.514;2023-05-07T12:54:00;0.75;0.50;0.50
73749;PMS7003;62058;48.406;-4.514;2023-05-07T12:56:25;2.00;1.00;1.00
73749;PMS7003;62058;48.406;-4.514;2023-05-07T12:58:51;0.50;0.00;0.00
73749;PMS7003;62058;48.406;-4.514;2023-05-07T13:01:16;1.75;0.75;0.75
73749;PMS7003;62058;48.406;-4.514;2023-05-07T13:03:47;4.75;0.50;0.50
73749;PMS7003;62058;48.406;-4.514;2023-05-07T13:06:13;4.25;1.00;1.00
73749;PMS7003;62058;48.406;-4.514;2023-05-07T13:08:40;2.00;0.50;0.50
73749;PMS7003;62058;48.406;-4.514;2023-05-07T13:11:09;2.50;1.00;1.00
73749;PMS7003;62058;48.406;-4.514;2023-05-07T13:13:36;2.00;0.00;0.00
73749;PMS7003;62058;48.406;-4.514;2023-05-07T13:16:03;0.00;0.00;0.00
73749;PMS7003;62058;48.406;-4.514;2023-05-07T13:18:30;0.00;0.00;0.00
73749;PMS7003;62058;48.406;-4.514;2023-05-07T13:20:56;0.00;0.00;0.00
73749;PMS7003;62058;48.406;-4.514;2023-05-07T13:23:22;1.00;0.00;0.00
73749;PMS7003;62058;48.406;-4.514;2023-05-07T13:25:48;0.00;0.00;0.00
73749;PMS7003;62058;48.406;-4.514;2023-05-07T13:28:14;3.75;0.00;0.00
73749;PMS7003;62058;48.406;-4.514;2023-05-07T13:30:39;0.00;0.00;0.00
73749;PMS7003;62058;48.406;-4.514;2023-05-07T13:33:05;0.00;0.00;0.00
73749;PMS7003;62058;48.406;-4.514;2023-05-07T13:35:31;1.25;0.25;0.25
73749;PMS7003;62058;48.406;-4.514;2023-05-07T13:37:56;2.00;1.00;1.00
73749;PMS7003;62058;48.406;-4.514;2023-05-07T13:40:22;0.00;0.00;0.00
73749;PMS7003;62058;48.406;-4.514;2023-05-07T13:42:48;0.75;0.75;0.75
73749;PMS7003;62058;48.406;-4.514;2023-05-07T13:45:14;3.00;1.00;1.00
73749;PMS7003;62058;48.406;-4.514;2023-05-07T13:47:42;0.75;0.75;0.75
73749;PMS7003;62058;48.406;-4.514;2023-05-07T13:50:09;1.00;1.00;0.50
73749;PMS7003;62058;48.406;-4.514;2023-05-07T13:52:36;1.00;1.00;1.00
73749;PMS7003;62058;48.406;-4.514;2023-05-07T13:55:02;1.00;1.00;1.00
73749;PMS7003;62058;48.406;-4.514;2023-05-07T13:57:28;3.00;1.75;1.75
73749;PMS7003;62058;48.406;-4.514;2023-05-07T13:59:53;1.00;1.00;0.50
73749;PMS7003;62058;48.406;-4.514;2023-05-07T14:02:19;2.00;1.00;1.00
73749;PMS7003;62058;48.406;-4.514;2023-05-07T14:04:44;2.50;1.00;1.00
73749;PMS7003;62058;48.406;-4.514;2023-05-07T14:07:10;4.25;1.75;1.75
73749;PMS7003;62058;48.406;-4.514;2023-05-07T14:09:35;0.50;0.50;0.50
73749;PMS7003;62058;48.406;-4.514;2023-05-07T14:12:01;1.25;1.25;1.25
73749;PMS7003;62058;48.406;-4.514;2023-05-07T14:14:26;1.00;1.00;1.00
73749;PMS7003;62058;48.406;-4.514;2023-05-07T14:16:52;1.00;0.25;0.25
73749;PMS7003;62058;48.406;-4.514;2023-05-07T14:19:17;2.00;0.25;0.25
73749;PMS7003;62058;48.406;-4.514;2023-05-07T14:21:43;1.25;1.00;1.00
73749;PMS7003;62058;48.406;-4.514;2023-05-07T14:24:08;0.00;0.00;0.00